sensor_id;sensor_type;location;lat;lon;timestamp;P1;durP1;ratioP1;P2;durP2;ratioP2
57337;SDS011;43173;50.980;18.204;2024-02-23T00:00:15;10.00;;;6.40;;
57337;SDS011;43173;50.980;18.204;2024-02-23T00:02:45;6.40;;;4.70;;
57337;SDS011;43173;50.980;18.204;2024-02-23T00:05:14;7.60;;;5.40;;
57337;SDS011;43173;50.980;18.204;2024-02-23T00:07:43;7.90;;;5.00;;
57337;SDS011;43173;50.980;18.204;2024-02-23T00:10:13;7.30;;;5.70;;
57337;SDS011;43173;50.980;18.204;2024-02-23T00:12:43;5.50;;;4.30;;
57337;SDS011;43173;50.980;18.204;2024-02-23T00:17:56;7.60;;;5.30;;
57337;SDS011;43173;50.980;18.204;2024-02-23T00:20:26;7.40;;;5.00;;
57337;SDS011;43173;50.980;18.204;2024-02-23T00:22:56;8.90;;;4.50;;
57337;SDS011;43173;50.980;18.204;2024-02-23T00:25:25;6.70;;;5.00;;
57337;SDS011;43173;50.980;18.204;2024-02-23T00:27:55;8.20;;;6.00;;
57337;SDS011;43173;50.980;18.204;2024-02-23T00:30:24;8.20;;;5.60;;
57337;SDS011;43173;50.980;18.204;2024-02-23T00:32:53;7.80;;;5.70;;
57337;SDS011;43173;50.980;18.204;2024-02-23T00:35:23;10.80;;;6.90;;
57337;SDS011;43173;50.980;18.204;2024-02-23T00:37:53;8.60;;;5.80;;
57337;SDS011;43173;50.980;18.204;2024-02-23T00:40:23;6.00;;;4.30;;
57337;SDS011;43173;50.980;18.204;2024-02-23T00:42:52;9.60;;;5.80;;
57337;SDS011;43173;50.980;18.204;2024-02-23T00:45:22;7.90;;;5.80;;
57337;SDS011;43173;50.980;18.204;2024-02-23T00:50:27;7.50;;;5.20;;
57337;SDS011;43173;50.980;18.204;2024-02-23T00:52:56;7.60;;;5.50;;
57337;SDS011;43173;50.980;18.204;2024-02-23T00:55:26;7.20;;;5.20;;
57337;SDS011;43173;50.980;18.204;2024-02-23T00:57:55;8.90;;;6.00;;
57337;SDS011;43173;50.980;18.204;2024-02-23T01:00:25;7.50;;;4.70;;
57337;SDS011;43173;50.980;18.204;2024-02-23T01:02:55;7.20;;;5.20;;
57337;SDS011;43173;50.980;18.204;2024-02-23T01:05:26;7.40;;;5.30;;
57337;SDS011;43173;50.980;18.204;2024-02-23T01:10:41;7.10;;;4.60;;
57337;SDS011;43173;50.980;18.204;2024-02-23T01:13:11;7.20;;;4.80;;
57337;SDS011;43173;50.980;18.204;2024-02-23T01:15:41;3.90;;;3.10;;
57337;SDS011;43173;50.980;18.204;2024-02-23T01:18:12;8.10;;;4.60;;
57337;SDS011;43173;50.980;18.204;2024-02-23T01:20:41;5.90;;;4.00;;
57337;SDS011;43173;50.980;18.204;2024-02-23T01:23:11;5.50;;;4.10;;
57337;SDS011;43173;50.980;18.204;2024-02-23T01:25:41;7.50;;;5.20;;
57337;SDS011;43173;50.980;18.204;2024-02-23T01:28:11;5.50;;;4.40;;
57337;SDS011;43173;50.980;18.204;2024-02-23T01:30:40;10.80;;;5.30;;
57337;SDS011;43173;50.980;18.204;2024-02-23T01:33:10;7.60;;;4.90;;
57337;SDS011;43173;50.980;18.204;2024-02-23T01:35:41;6.20;;;4.70;;
57337;SDS011;43173;50.980;18.204;2024-02-23T01:38:12;5.60;;;3.90;;
57337;SDS011;43173;50.980;18.204;2024-02-23T01:40:47;7.00;;;5.10;;
57337;SDS011;43173;50.980;18.204;2024-02-23T01:43:17;6.70;;;5.10;;
57337;SDS011;43173;50.980;18.204;2024-02-23T01:45:46;6.40;;;4.90;;
57337;SDS011;43173;50.980;18.204;2024-02-23T01:48:16;6.40;;;4.60;;
57337;SDS011;43173;50.980;18.204;2024-02-23T01:50:46;10.00;;;5.50;;
57337;SDS011;43173;50.980;18.204;2024-02-23T01:53:15;7.80;;;5.30;;
57337;SDS011;43173;50.980;18.204;2024-02-23T01:58:20;7.20;;;5.30;;
57337;SDS011;43173;50.980;18.204;2024-02-23T02:00:50;8.20;;;5.40;;
57337;SDS011;43173;50.980;18.204;2024-02-23T02:03:19;10.50;;;5.60;;
57337;SDS011;43173;50.980;18.204;2024-02-23T02:05:48;5.70;;;3.90;;
57337;SDS011;43173;50.980;18.204;2024-02-23T02:08:19;8.90;;;5.60;;
57337;SDS011;43173;50.980;18.204;2024-02-23T02:10:49;9.50;;;5.70;;
57337;SDS011;43173;50.980;18.204;2024-02-23T02:13:18;8.40;;;5.70;;
57337;SDS011;43173;50.980;18.204;2024-02-23T02:15:47;8.10;;;5.10;;
57337;SDS011;43173;50.980;18.204;2024-02-23T02:18:17;8.00;;;5.40;;
57337;SDS011;43173;50.980;18.204;2024-02-23T02:20:50;8.80;;;5.20;;
57337;SDS011;43173;50.980;18.204;2024-02-23T02:23:23;11.20;;;5.00;;
57337;SDS011;43173;50.980;18.204;2024-02-23T02:25:53;8.00;;;5.80;;
57337;SDS011;43173;50.980;18.204;2024-02-23T02:28:24;9.90;;;6.40;;
57337;SDS011;43173;50.980;18.204;2024-02-23T02:30:54;7.80;;;4.80;;
57337;SDS011;43173;50.980;18.204;2024-02-23T02:33:24;7.60;;;5.80;;
57337;SDS011;43173;50.980;18.204;2024-02-23T02:35:53;6.90;;;4.60;;
57337;SDS011;43173;50.980;18.204;2024-02-23T02:38:24;7.90;;;6.00;;
57337;SDS011;43173;50.980;18.204;2024-02-23T02:40:54;7.90;;;5.10;;
57337;SDS011;43173;50.980;18.204;2024-02-23T02:43:26;9.50;;;5.80;;
57337;SDS011;43173;50.980;18.204;2024-02-23T02:45:56;8.80;;;5.20;;
57337;SDS011;43173;50.980;18.204;2024-02-23T02:48:26;9.10;;;6.20;;
57337;SDS011;43173;50.980;18.204;2024-02-23T02:50:55;7.30;;;4.60;;
57337;SDS011;43173;50.980;18.204;2024-02-23T02:53:25;8.80;;;6.00;;
57337;SDS011;43173;50.980;18.204;2024-02-23T02:55:54;8.70;;;5.90;;
57337;SDS011;43173;50.980;18.204;2024-02-23T02:58:24;15.10;;;8.80;;
57337;SDS011;43173;50.980;18.204;2024-02-23T03:00:53;12.90;;;8.00;;
57337;SDS011;43173;50.980;18.204;2024-02-23T03:03:39;10.40;;;5.90;;
57337;SDS011;43173;50.980;18.204;2024-02-23T03:06:08;8.90;;;5.80;;
57337;SDS011;43173;50.980;18.204;2024-02-23T03:08:37;7.30;;;5.70;;
57337;SDS011;43173;50.980;18.204;2024-02-23T03:11:09;7.80;;;5.60;;
57337;SDS011;43173;50.980;18.204;2024-02-23T03:13:38;6.80;;;4.40;;
57337;SDS011;43173;50.980;18.204;2024-02-23T03:18:57;8.50;;;5.20;;
57337;SDS011;43173;50.980;18.204;2024-02-23T03:21:27;6.40;;;5.10;;
57337;SDS011;43173;50.980;18.204;2024-02-23T03:23:58;8.00;;;5.10;;
57337;SDS011;43173;50.980;18.204;2024-02-23T03:26:27;7.80;;;5.30;;
57337;SDS011;43173;50.980;18.204;2024-02-23T03:28:56;7.40;;;5.30;;
57337;SDS011;43173;50.980;18.204;2024-02-23T03:31:26;7.50;;;5.30;;
57337;SDS011;43173;50.980;18.204;2024-02-23T03:33:56;7.20;;;5.10;;
57337;SDS011;43173;50.980;18.204;2024-02-23T03:36:25;6.90;;;4.60;;
57337;SDS011;43173;50.980;18.204;2024-02-23T03:38:56;6.90;;;4.80;;
57337;SDS011;43173;50.980;18.204;2024-02-23T03:41:25;8.30;;;5.10;;
57337;SDS011;43173;50.980;18.204;2024-02-23T03:43:54;8.60;;;4.80;;
57337;SDS011;43173;50.980;18.204;2024-02-23T03:46:23;8.00;;;5.10;;
57337;SDS011;43173;50.980;18.204;2024-02-23T03:48:51;7.50;;;4.70;;
57337;SDS011;43173;50.980;18.204;2024-02-23T03:51:18;5.40;;;4.60;;
57337;SDS011;43173;50.980;18.204;2024-02-23T03:53:43;6.50;;;4.60;;
57337;SDS011;43173;50.980;18.204;2024-02-23T03:56:09;9.00;;;4.40;;
57337;SDS011;43173;50.980;18.204;2024-02-23T03:58:34;29.70;;;11.80;;
57337;SDS011;43173;50.980;18.204;2024-02-23T04:01:00;30.10;;;11.30;;
57337;SDS011;43173;50.980;18.204;2024-02-23T04:03:25;23.00;;;9.40;;
57337;SDS011;43173;50.980;18.204;2024-02-23T04:05:51;23.10;;;9.60;;
57337;SDS011;43173;50.980;18.204;2024-02-23T04:08:16;42.40;;;13.50;;
57337;SDS011;43173;50.980;18.204;2024-02-23T04:10:42;44.80;;;15.10;;
57337;SDS011;43173;50.980;18.204;2024-02-23T04:13:07;17.40;;;7.10;;
57337;SDS011;43173;50.980;18.204;2024-02-23T04:15:33;13.40;;;5.60;;
57337;SDS011;43173;50.980;18.204;2024-02-23T04:17:59;59.80;;;17.10;;
57337;SDS011;43173;50.980;18.204;2024-02-23T04:20:25;37.50;;;11.30;;
57337;SDS011;43173;50.980;18.204;2024-02-23T04:22:50;18.20;;;7.60;;
57337;SDS011;43173;50.980;18.204;2024-02-23T04:25:16;7.90;;;5.10;;
57337;SDS011;43173;50.980;18.204;2024-02-23T04:27:41;6.00;;;3.50;;
57337;SDS011;43173;50.980;18.204;2024-02-23T04:30:08;8.30;;;4.10;;
57337;SDS011;43173;50.980;18.204;2024-02-23T04:32:35;10.20;;;5.20;;
57337;SDS011;43173;50.980;18.204;2024-02-23T04:35:01;14.30;;;7.10;;
57337;SDS011;43173;50.980;18.204;2024-02-23T04:37:27;8.50;;;4.50;;
57337;SDS011;43173;50.980;18.204;2024-02-23T04:39:52;7.70;;;5.10;;
57337;SDS011;43173;50.980;18.204;2024-02-23T04:42:18;5.50;;;3.90;;
57337;SDS011;43173;50.980;18.204;2024-02-23T04:44:43;5.90;;;4.60;;
57337;SDS011;43173;50.980;18.204;2024-02-23T04:47:09;7.90;;;4.50;;
57337;SDS011;43173;50.980;18.204;2024-02-23T04:49:34;4.70;;;3.10;;
57337;SDS011;43173;50.980;18.204;2024-02-23T04:52:00;7.90;;;4.50;;
57337;SDS011;43173;50.980;18.204;2024-02-23T04:54:26;9.70;;;5.00;;
57337;SDS011;43173;50.980;18.204;2024-02-23T04:56:52;5.90;;;3.90;;
57337;SDS011;43173;50.980;18.204;2024-02-23T04:59:17;9.10;;;4.90;;
57337;SDS011;43173;50.980;18.204;2024-02-23T05:01:43;7.60;;;4.20;;
57337;SDS011;43173;50.980;18.204;2024-02-23T05:04:08;6.10;;;4.30;;
57337;SDS011;43173;50.980;18.204;2024-02-23T05:06:34;9.20;;;6.10;;
57337;SDS011;43173;50.980;18.204;2024-02-23T05:09:00;10.80;;;5.90;;
57337;SDS011;43173;50.980;18.204;2024-02-23T05:11:27;20.70;;;9.00;;
57337;SDS011;43173;50.980;18.204;2024-02-23T05:13:52;22.10;;;9.40;;
57337;SDS011;43173;50.980;18.204;2024-02-23T05:16:18;19.10;;;8.50;;
57337;SDS011;43173;50.980;18.204;2024-02-23T05:18:44;26.00;;;12.70;;
57337;SDS011;43173;50.980;18.204;2024-02-23T05:21:12;20.50;;;9.40;;
57337;SDS011;43173;50.980;18.204;2024-02-23T05:23:40;13.30;;;7.00;;
57337;SDS011;43173;50.980;18.204;2024-02-23T05:26:06;31.90;;;12.90;;
57337;SDS011;43173;50.980;18.204;2024-02-23T05:28:32;23.60;;;9.80;;
57337;SDS011;43173;50.980;18.204;2024-02-23T05:31:01;8.20;;;4.00;;
57337;SDS011;43173;50.980;18.204;2024-02-23T05:33:29;11.30;;;5.60;;
57337;SDS011;43173;50.980;18.204;2024-02-23T05:35:54;8.10;;;4.60;;
57337;SDS011;43173;50.980;18.204;2024-02-23T05:38:20;6.30;;;3.50;;
57337;SDS011;43173;50.980;18.204;2024-02-23T05:40:45;10.50;;;5.60;;
57337;SDS011;43173;50.980;18.204;2024-02-23T05:43:11;4.60;;;3.70;;
57337;SDS011;43173;50.980;18.204;2024-02-23T05:45:36;9.80;;;5.50;;
57337;SDS011;43173;50.980;18.204;2024-02-23T05:48:02;7.50;;;4.50;;
57337;SDS011;43173;50.980;18.204;2024-02-23T05:50:28;11.40;;;5.20;;
57337;SDS011;43173;50.980;18.204;2024-02-23T05:52:54;8.50;;;5.30;;
57337;SDS011;43173;50.980;18.204;2024-02-23T05:55:19;11.50;;;6.20;;
57337;SDS011;43173;50.980;18.204;2024-02-23T05:57:45;18.30;;;8.70;;
57337;SDS011;43173;50.980;18.204;2024-02-23T06:00:10;17.40;;;7.70;;
57337;SDS011;43173;50.980;18.204;2024-02-23T06:02:37;12.90;;;6.70;;
57337;SDS011;43173;50.980;18.204;2024-02-23T06:05:04;12.60;;;6.20;;
57337;SDS011;43173;50.980;18.204;2024-02-23T06:07:30;9.70;;;4.90;;
57337;SDS011;43173;50.980;18.204;2024-02-23T06:09:56;11.00;;;5.50;;
57337;SDS011;43173;50.980;18.204;2024-02-23T06:12:22;14.20;;;6.00;;
57337;SDS011;43173;50.980;18.204;2024-02-23T06:14:48;9.90;;;4.80;;
57337;SDS011;43173;50.980;18.204;2024-02-23T06:17:13;18.60;;;8.50;;
57337;SDS011;43173;50.980;18.204;2024-02-23T06:19:39;14.60;;;4.40;;
57337;SDS011;43173;50.980;18.204;2024-02-23T06:22:04;7.30;;;4.60;;
57337;SDS011;43173;50.980;18.204;2024-02-23T06:24:30;17.70;;;7.30;;
57337;SDS011;43173;50.980;18.204;2024-02-23T06:26:56;14.20;;;4.90;;
57337;SDS011;43173;50.980;18.204;2024-02-23T06:29:23;8.10;;;4.60;;
57337;SDS011;43173;50.980;18.204;2024-02-23T06:31:49;7.50;;;4.30;;
57337;SDS011;43173;50.980;18.204;2024-02-23T06:34:15;3.90;;;2.90;;
57337;SDS011;43173;50.980;18.204;2024-02-23T06:36:41;4.70;;;3.20;;
57337;SDS011;43173;50.980;18.204;2024-02-23T06:39:07;6.20;;;3.40;;
57337;SDS011;43173;50.980;18.204;2024-02-23T06:41:34;13.40;;;5.20;;
57337;SDS011;43173;50.980;18.204;2024-02-23T06:43:59;9.70;;;5.20;;
57337;SDS011;43173;50.980;18.204;2024-02-23T06:46:26;5.60;;;3.90;;
57337;SDS011;43173;50.980;18.204;2024-02-23T06:48:51;5.60;;;3.00;;
57337;SDS011;43173;50.980;18.204;2024-02-23T06:51:17;7.80;;;4.80;;
57337;SDS011;43173;50.980;18.204;2024-02-23T06:53:43;9.20;;;4.70;;
57337;SDS011;43173;50.980;18.204;2024-02-23T06:56:08;8.70;;;5.00;;
57337;SDS011;43173;50.980;18.204;2024-02-23T06:58:34;7.10;;;4.40;;
57337;SDS011;43173;50.980;18.204;2024-02-23T07:01:00;9.30;;;6.00;;
57337;SDS011;43173;50.980;18.204;2024-02-23T07:03:27;7.10;;;4.70;;
57337;SDS011;43173;50.980;18.204;2024-02-23T07:05:53;8.20;;;4.10;;
57337;SDS011;43173;50.980;18.204;2024-02-23T07:08:19;11.10;;;5.90;;
57337;SDS011;43173;50.980;18.204;2024-02-23T07:10:44;10.60;;;5.40;;
57337;SDS011;43173;50.980;18.204;2024-02-23T07:13:10;11.40;;;6.00;;
57337;SDS011;43173;50.980;18.204;2024-02-23T07:15:36;7.40;;;5.30;;
57337;SDS011;43173;50.980;18.204;2024-02-23T07:18:01;7.40;;;4.10;;
57337;SDS011;43173;50.980;18.204;2024-02-23T07:20:27;6.80;;;4.10;;
57337;SDS011;43173;50.980;18.204;2024-02-23T07:22:53;7.30;;;4.60;;
57337;SDS011;43173;50.980;18.204;2024-02-23T07:25:18;7.90;;;4.60;;
57337;SDS011;43173;50.980;18.204;2024-02-23T07:27:48;9.50;;;5.40;;
57337;SDS011;43173;50.980;18.204;2024-02-23T07:30:16;7.00;;;4.50;;
57337;SDS011;43173;50.980;18.204;2024-02-23T07:46:03;9.20;;;5.50;;
57337;SDS011;43173;50.980;18.204;2024-02-23T07:48:30;8.40;;;4.40;;
57337;SDS011;43173;50.980;18.204;2024-02-23T07:50:56;7.20;;;4.70;;
57337;SDS011;43173;50.980;18.204;2024-02-23T07:53:21;9.40;;;5.40;;
57337;SDS011;43173;50.980;18.204;2024-02-23T07:55:47;9.50;;;3.90;;
57337;SDS011;43173;50.980;18.204;2024-02-23T07:58:12;7.10;;;4.20;;
57337;SDS011;43173;50.980;18.204;2024-02-23T08:00:38;7.50;;;4.50;;
57337;SDS011;43173;50.980;18.204;2024-02-23T08:03:04;6.20;;;4.00;;
57337;SDS011;43173;50.980;18.204;2024-02-23T08:05:30;9.20;;;4.50;;
57337;SDS011;43173;50.980;18.204;2024-02-23T08:07:56;4.30;;;3.00;;
57337;SDS011;43173;50.980;18.204;2024-02-23T08:10:21;7.10;;;4.20;;
57337;SDS011;43173;50.980;18.204;2024-02-23T08:12:47;5.10;;;3.40;;
57337;SDS011;43173;50.980;18.204;2024-02-23T08:15:13;4.80;;;3.50;;
57337;SDS011;43173;50.980;18.204;2024-02-23T08:17:38;4.40;;;3.30;;
57337;SDS011;43173;50.980;18.204;2024-02-23T08:20:04;4.80;;;3.80;;
57337;SDS011;43173;50.980;18.204;2024-02-23T08:22:30;8.10;;;3.70;;
57337;SDS011;43173;50.980;18.204;2024-02-23T08:24:56;7.80;;;4.40;;
57337;SDS011;43173;50.980;18.204;2024-02-23T08:27:21;4.50;;;3.60;;
57337;SDS011;43173;50.980;18.204;2024-02-23T08:29:47;5.60;;;3.40;;
57337;SDS011;43173;50.980;18.204;2024-02-23T08:32:13;6.00;;;3.80;;
57337;SDS011;43173;50.980;18.204;2024-02-23T08:34:38;5.60;;;3.90;;
57337;SDS011;43173;50.980;18.204;2024-02-23T08:37:04;5.50;;;3.70;;
57337;SDS011;43173;50.980;18.204;2024-02-23T08:39:30;6.50;;;4.10;;
57337;SDS011;43173;50.980;18.204;2024-02-23T08:41:55;9.70;;;4.80;;
57337;SDS011;43173;50.980;18.204;2024-02-23T08:44:21;9.40;;;4.60;;
57337;SDS011;43173;50.980;18.204;2024-02-23T08:46:46;8.90;;;5.20;;
57337;SDS011;43173;50.980;18.204;2024-02-23T08:49:13;8.40;;;5.40;;
57337;SDS011;43173;50.980;18.204;2024-02-23T08:51:39;8.00;;;4.50;;
57337;SDS011;43173;50.980;18.204;2024-02-23T08:54:05;7.30;;;4.90;;
57337;SDS011;43173;50.980;18.204;2024-02-23T08:56:38;6.40;;;4.70;;
57337;SDS011;43173;50.980;18.204;2024-02-23T08:59:05;5.80;;;3.80;;
57337;SDS011;43173;50.980;18.204;2024-02-23T09:01:31;8.30;;;4.60;;
57337;SDS011;43173;50.980;18.204;2024-02-23T09:03:56;6.20;;;4.10;;
57337;SDS011;43173;50.980;18.204;2024-02-23T09:06:22;8.00;;;4.20;;
57337;SDS011;43173;50.980;18.204;2024-02-23T09:08:48;8.00;;;3.90;;
57337;SDS011;43173;50.980;18.204;2024-02-23T09:11:13;8.90;;;4.40;;
57337;SDS011;43173;50.980;18.204;2024-02-23T09:13:40;6.00;;;4.60;;
57337;SDS011;43173;50.980;18.204;2024-02-23T09:16:07;6.00;;;3.70;;
57337;SDS011;43173;50.980;18.204;2024-02-23T09:18:34;6.20;;;4.00;;
57337;SDS011;43173;50.980;18.204;2024-02-23T09:21:00;3.70;;;3.00;;
57337;SDS011;43173;50.980;18.204;2024-02-23T09:23:26;5.40;;;3.50;;
57337;SDS011;43173;50.980;18.204;2024-02-23T09:25:51;7.50;;;4.70;;
57337;SDS011;43173;50.980;18.204;2024-02-23T09:28:17;6.80;;;3.80;;
57337;SDS011;43173;50.980;18.204;2024-02-23T09:30:43;6.70;;;3.70;;
57337;SDS011;43173;50.980;18.204;2024-02-23T09:33:08;4.00;;;2.40;;
57337;SDS011;43173;50.980;18.204;2024-02-23T09:35:34;6.60;;;3.20;;
57337;SDS011;43173;50.980;18.204;2024-02-23T09:38:00;4.00;;;2.70;;
57337;SDS011;43173;50.980;18.204;2024-02-23T09:40:25;4.70;;;3.20;;
57337;SDS011;43173;50.980;18.204;2024-02-23T09:42:55;6.30;;;3.10;;
57337;SDS011;43173;50.980;18.204;2024-02-23T09:45:25;4.30;;;2.60;;
57337;SDS011;43173;50.980;18.204;2024-02-23T09:47:53;4.00;;;2.50;;
57337;SDS011;43173;50.980;18.204;2024-02-23T09:50:20;5.00;;;3.40;;
57337;SDS011;43173;50.980;18.204;2024-02-23T09:52:48;5.20;;;2.90;;
57337;SDS011;43173;50.980;18.204;2024-02-23T09:55:16;4.20;;;2.50;;
57337;SDS011;43173;50.980;18.204;2024-02-23T09:57:42;4.10;;;2.30;;
57337;SDS011;43173;50.980;18.204;2024-02-23T10:00:09;2.70;;;2.10;;
57337;SDS011;43173;50.980;18.204;2024-02-23T10:02:35;3.90;;;2.60;;
57337;SDS011;43173;50.980;18.204;2024-02-23T10:05:01;6.10;;;3.20;;
57337;SDS011;43173;50.980;18.204;2024-02-23T10:07:27;9.40;;;4.30;;
57337;SDS011;43173;50.980;18.204;2024-02-23T10:09:53;5.40;;;2.30;;
57337;SDS011;43173;50.980;18.204;2024-02-23T10:12:20;10.90;;;4.30;;
57337;SDS011;43173;50.980;18.204;2024-02-23T10:14:46;5.00;;;3.30;;
57337;SDS011;43173;50.980;18.204;2024-02-23T10:17:12;6.50;;;3.00;;
57337;SDS011;43173;50.980;18.204;2024-02-23T10:19:37;5.80;;;2.80;;
57337;SDS011;43173;50.980;18.204;2024-02-23T10:22:04;8.70;;;4.20;;
57337;SDS011;43173;50.980;18.204;2024-02-23T10:24:30;5.10;;;2.70;;
57337;SDS011;43173;50.980;18.204;2024-02-23T10:26:55;4.50;;;2.50;;
57337;SDS011;43173;50.980;18.204;2024-02-23T10:29:22;7.10;;;3.40;;
57337;SDS011;43173;50.980;18.204;2024-02-23T10:31:48;4.70;;;2.70;;
57337;SDS011;43173;50.980;18.204;2024-02-23T10:34:18;3.90;;;2.70;;
57337;SDS011;43173;50.980;18.204;2024-02-23T10:36:44;6.00;;;3.00;;
57337;SDS011;43173;50.980;18.204;2024-02-23T10:39:15;6.10;;;3.50;;
57337;SDS011;43173;50.980;18.204;2024-02-23T10:41:45;3.60;;;2.50;;
57337;SDS011;43173;50.980;18.204;2024-02-23T10:44:13;7.50;;;3.80;;
57337;SDS011;43173;50.980;18.204;2024-02-23T10:46:41;15.70;;;5.90;;
57337;SDS011;43173;50.980;18.204;2024-02-23T10:49:07;17.80;;;5.80;;
57337;SDS011;43173;50.980;18.204;2024-02-23T10:51:33;15.80;;;5.60;;
57337;SDS011;43173;50.980;18.204;2024-02-23T10:53:58;14.50;;;5.30;;
57337;SDS011;43173;50.980;18.204;2024-02-23T10:56:25;18.90;;;6.30;;
57337;SDS011;43173;50.980;18.204;2024-02-23T10:58:52;18.10;;;5.80;;
57337;SDS011;43173;50.980;18.204;2024-02-23T11:01:18;19.10;;;6.30;;
57337;SDS011;43173;50.980;18.204;2024-02-23T11:03:44;17.60;;;5.90;;
57337;SDS011;43173;50.980;18.204;2024-02-23T11:06:13;17.00;;;6.00;;
57337;SDS011;43173;50.980;18.204;2024-02-23T11:08:39;16.30;;;4.90;;
57337;SDS011;43173;50.980;18.204;2024-02-23T11:11:08;15.40;;;5.10;;
57337;SDS011;43173;50.980;18.204;2024-02-23T11:13:35;22.10;;;4.90;;
57337;SDS011;43173;50.980;18.204;2024-02-23T11:16:02;22.10;;;7.00;;
57337;SDS011;43173;50.980;18.204;2024-02-23T11:18:29;16.20;;;5.60;;
57337;SDS011;43173;50.980;18.204;2024-02-23T11:20:55;20.10;;;6.00;;
57337;SDS011;43173;50.980;18.204;2024-02-23T11:23:24;23.70;;;6.40;;
57337;SDS011;43173;50.980;18.204;2024-02-23T11:28:41;9.00;;;3.30;;
57337;SDS011;43173;50.980;18.204;2024-02-23T11:31:13;18.60;;;6.30;;
57337;SDS011;43173;50.980;18.204;2024-02-23T11:33:39;21.00;;;7.00;;
57337;SDS011;43173;50.980;18.204;2024-02-23T11:36:05;16.50;;;5.50;;
57337;SDS011;43173;50.980;18.204;2024-02-23T11:38:34;17.10;;;5.00;;
57337;SDS011;43173;50.980;18.204;2024-02-23T11:41:01;22.70;;;7.20;;
57337;SDS011;43173;50.980;18.204;2024-02-23T11:43:28;10.30;;;3.10;;
57337;SDS011;43173;50.980;18.204;2024-02-23T11:45:53;13.40;;;4.20;;
57337;SDS011;43173;50.980;18.204;2024-02-23T11:48:20;12.40;;;4.20;;
57337;SDS011;43173;50.980;18.204;2024-02-23T11:50:49;14.30;;;4.30;;
57337;SDS011;43173;50.980;18.204;2024-02-23T11:53:15;8.80;;;2.20;;
57337;SDS011;43173;50.980;18.204;2024-02-23T11:55:42;17.70;;;5.40;;
57337;SDS011;43173;50.980;18.204;2024-02-23T11:58:07;12.30;;;3.80;;
57337;SDS011;43173;50.980;18.204;2024-02-23T12:00:34;3.70;;;1.60;;
57337;SDS011;43173;50.980;18.204;2024-02-23T12:03:00;4.90;;;2.80;;
57337;SDS011;43173;50.980;18.204;2024-02-23T12:05:26;6.40;;;2.60;;
57337;SDS011;43173;50.980;18.204;2024-02-23T12:21:06;3.60;;;2.50;;
57337;SDS011;43173;50.980;18.204;2024-02-23T12:26:16;2.30;;;1.00;;
57337;SDS011;43173;50.980;18.204;2024-02-23T12:28:43;1.70;;;0.90;;
57337;SDS011;43173;50.980;18.204;2024-02-23T12:31:11;2.90;;;0.80;;
57337;SDS011;43173;50.980;18.204;2024-02-23T12:33:39;2.00;;;1.00;;
57337;SDS011;43173;50.980;18.204;2024-02-23T12:36:06;2.30;;;1.00;;
57337;SDS011;43173;50.980;18.204;2024-02-23T12:38:32;2.10;;;1.00;;
57337;SDS011;43173;50.980;18.204;2024-02-23T12:40:59;1.10;;;0.90;;
57337;SDS011;43173;50.980;18.204;2024-02-23T12:43:26;3.30;;;1.10;;
57337;SDS011;43173;50.980;18.204;2024-02-23T12:45:52;2.50;;;1.00;;
57337;SDS011;43173;50.980;18.204;2024-02-23T12:48:19;1.30;;;0.90;;
57337;SDS011;43173;50.980;18.204;2024-02-23T12:50:46;2.10;;;1.30;;
57337;SDS011;43173;50.980;18.204;2024-02-23T12:56:04;14.20;;;7.60;;
57337;SDS011;43173;50.980;18.204;2024-02-23T12:58:35;7.90;;;3.60;;
57337;SDS011;43173;50.980;18.204;2024-02-23T13:01:00;8.70;;;2.80;;
57337;SDS011;43173;50.980;18.204;2024-02-23T13:03:27;9.70;;;5.30;;
57337;SDS011;43173;50.980;18.204;2024-02-23T13:05:54;9.60;;;4.50;;
57337;SDS011;43173;50.980;18.204;2024-02-23T13:08:21;7.60;;;3.90;;
57337;SDS011;43173;50.980;18.204;2024-02-23T13:10:47;10.90;;;4.10;;
57337;SDS011;43173;50.980;18.204;2024-02-23T13:13:12;8.40;;;3.70;;
57337;SDS011;43173;50.980;18.204;2024-02-23T13:15:43;13.40;;;5.30;;
57337;SDS011;43173;50.980;18.204;2024-02-23T13:18:09;11.00;;;4.90;;
57337;SDS011;43173;50.980;18.204;2024-02-23T13:20:35;12.70;;;4.80;;
57337;SDS011;43173;50.980;18.204;2024-02-23T13:23:02;9.90;;;4.20;;
57337;SDS011;43173;50.980;18.204;2024-02-23T13:25:27;11.10;;;4.70;;
57337;SDS011;43173;50.980;18.204;2024-02-23T13:27:53;8.30;;;4.10;;
57337;SDS011;43173;50.980;18.204;2024-02-23T13:30:19;12.50;;;4.30;;
57337;SDS011;43173;50.980;18.204;2024-02-23T13:32:44;8.40;;;3.70;;
57337;SDS011;43173;50.980;18.204;2024-02-23T13:35:10;11.10;;;4.70;;
57337;SDS011;43173;50.980;18.204;2024-02-23T13:37:35;13.20;;;4.50;;
57337;SDS011;43173;50.980;18.204;2024-02-23T13:40:01;13.00;;;5.10;;
57337;SDS011;43173;50.980;18.204;2024-02-23T13:42:26;10.20;;;4.50;;
57337;SDS011;43173;50.980;18.204;2024-02-23T13:44:52;12.00;;;4.50;;
57337;SDS011;43173;50.980;18.204;2024-02-23T13:47:17;11.80;;;5.30;;
57337;SDS011;43173;50.980;18.204;2024-02-23T13:49:43;13.30;;;5.70;;
57337;SDS011;43173;50.980;18.204;2024-02-23T13:52:08;14.50;;;6.30;;
57337;SDS011;43173;50.980;18.204;2024-02-23T13:54:34;12.70;;;5.60;;
57337;SDS011;43173;50.980;18.204;2024-02-23T13:56:59;12.70;;;5.90;;
57337;SDS011;43173;50.980;18.204;2024-02-23T13:59:25;13.40;;;5.40;;
57337;SDS011;43173;50.980;18.204;2024-02-23T14:01:50;10.00;;;4.90;;
57337;SDS011;43173;50.980;18.204;2024-02-23T14:04:16;6.90;;;4.00;;
57337;SDS011;43173;50.980;18.204;2024-02-23T14:06:42;7.20;;;3.50;;
57337;SDS011;43173;50.980;18.204;2024-02-23T14:09:08;12.60;;;4.80;;
57337;SDS011;43173;50.980;18.204;2024-02-23T14:11:34;11.90;;;5.50;;
57337;SDS011;43173;50.980;18.204;2024-02-23T14:14:00;12.50;;;5.60;;
57337;SDS011;43173;50.980;18.204;2024-02-23T14:16:25;13.00;;;4.80;;
57337;SDS011;43173;50.980;18.204;2024-02-23T14:18:51;10.10;;;3.70;;
57337;SDS011;43173;50.980;18.204;2024-02-23T14:21:16;6.90;;;3.80;;
57337;SDS011;43173;50.980;18.204;2024-02-23T14:23:43;6.50;;;2.70;;
57337;SDS011;43173;50.980;18.204;2024-02-23T14:26:09;3.80;;;2.40;;
57337;SDS011;43173;50.980;18.204;2024-02-23T14:28:35;4.70;;;2.80;;
57337;SDS011;43173;50.980;18.204;2024-02-23T14:31:00;7.40;;;3.10;;
57337;SDS011;43173;50.980;18.204;2024-02-23T14:33:26;8.50;;;3.20;;
57337;SDS011;43173;50.980;18.204;2024-02-23T14:35:51;12.70;;;4.90;;
57337;SDS011;43173;50.980;18.204;2024-02-23T14:38:17;15.10;;;5.30;;
57337;SDS011;43173;50.980;18.204;2024-02-23T14:40:43;13.00;;;4.90;;
57337;SDS011;43173;50.980;18.204;2024-02-23T14:43:08;14.00;;;6.50;;
57337;SDS011;43173;50.980;18.204;2024-02-23T14:45:35;14.10;;;6.50;;
57337;SDS011;43173;50.980;18.204;2024-02-23T14:48:01;12.80;;;6.00;;
57337;SDS011;43173;50.980;18.204;2024-02-23T14:50:27;14.10;;;6.00;;
57337;SDS011;43173;50.980;18.204;2024-02-23T14:52:52;16.30;;;6.50;;
57337;SDS011;43173;50.980;18.204;2024-02-23T14:55:19;11.00;;;5.00;;
57337;SDS011;43173;50.980;18.204;2024-02-23T14:57:45;4.20;;;2.50;;
57337;SDS011;43173;50.980;18.204;2024-02-23T15:00:11;4.80;;;2.30;;
57337;SDS011;43173;50.980;18.204;2024-02-23T15:02:38;4.40;;;2.40;;
57337;SDS011;43173;50.980;18.204;2024-02-23T15:05:05;3.60;;;2.10;;
57337;SDS011;43173;50.980;18.204;2024-02-23T15:07:31;4.10;;;1.70;;
57337;SDS011;43173;50.980;18.204;2024-02-23T15:09:58;5.20;;;1.90;;
57337;SDS011;43173;50.980;18.204;2024-02-23T15:12:24;5.20;;;2.60;;
57337;SDS011;43173;50.980;18.204;2024-02-23T15:14:53;6.90;;;2.90;;
57337;SDS011;43173;50.980;18.204;2024-02-23T15:17:19;5.10;;;2.80;;